sensor_id;sensor_type;location;lat;lon;timestamp;pressure;altitude;pressure_sealevel;temperature;humidity
4981;BME280;2507;50.392;7.482;2023-07-13T00:00:17;100706.44;;;21.42;45.99
4981;BME280;2507;50.392;7.482;2023-07-13T00:02:43;100711.88;;;21.48;45.29
4981;BME280;2507;50.392;7.482;2023-07-13T00:05:09;100701.50;;;21.53;45.27
4981;BME280;2507;50.392;7.482;2023-07-13T00:07:35;100706.72;;;21.47;44.68
4981;BME280;2507;50.392;7.482;2023-07-13T00:10:01;100729.81;;;21.40;44.77
4981;BME280;2507;50.392;7.482;2023-07-13T00:12:32;100712.97;;;21.31;44.71
4981;BME280;2507;50.392;7.482;2023-07-13T00:14:59;100718.53;;;21.21;44.31
4981;BME280;2507;50.392;7.482;2023-07-13T00:17:26;100705.56;;;21.10;44.88
4981;BME280;2507;50.392;7.482;2023-07-13T00:19:52;100719.78;;;21.03;44.83
4981;BME280;2507;50.392;7.482;2023-07-13T00:22:18;100707.09;;;20.97;45.17
4981;BME280;2507;50.392;7.482;2023-07-13T00:24:44;100707.28;;;20.87;45.45
4981;BME280;2507;50.392;7.482;2023-07-13T00:27:10;100713.31;;;20.81;45.41
4981;BME280;2507;50.392;7.482;2023-07-13T00:29:36;100704.00;;;20.69;45.58
4981;BME280;2507;50.392;7.482;2023-07-13T00:32:04;100707.88;;;20.59;45.55
4981;BME280;2507;50.392;7.482;2023-07-13T00:34:29;100697.03;;;20.60;45.65
4981;BME280;2507;50.392;7.482;2023-07-13T00:36:55;100689.72;;;20.54;45.70
4981;BME280;2507;50.392;7.482;2023-07-13T00:39:21;100712.09;;;20.45;46.04
4981;BME280;2507;50.392;7.482;2023-07-13T00:41:46;100698.25;;;20.33;46.33
4981;BME280;2507;50.392;7.482;2023-07-13T00:44:17;100705.75;;;20.22;46.69
4981;BME280;2507;50.392;7.482;2023-07-13T00:46:42;100696.59;;;20.08;46.91
4981;BME280;2507;50.392;7.482;2023-07-13T00:49:11;100704.75;;;19.99;47.22
4981;BME280;2507;50.392;7.482;2023-07-13T00:51:58;100705.75;;;19.90;47.51
4981;BME280;2507;50.392;7.482;2023-07-13T00:54:27;100707.38;;;19.75;47.76
4981;BME280;2507;50.392;7.482;2023-07-13T00:56:58;100717.88;;;19.68;48.05
4981;BME280;2507;50.392;7.482;2023-07-13T00:59:25;100713.19;;;19.62;48.33
4981;BME280;2507;50.392;7.482;2023-07-13T01:01:51;100709.34;;;19.57;48.88
4981;BME280;2507;50.392;7.482;2023-07-13T01:04:17;100706.34;;;19.52;48.83
4981;BME280;2507;50.392;7.482;2023-07-13T01:06:43;100704.84;;;19.41;48.68
4981;BME280;2507;50.392;7.482;2023-07-13T01:09:09;100720.31;;;19.46;48.67
4981;BME280;2507;50.392;7.482;2023-07-13T01:11:35;100711.19;;;19.56;48.71
4981;BME280;2507;50.392;7.482;2023-07-13T01:14:01;100709.19;;;19.50;49.51
4981;BME280;2507;50.392;7.482;2023-07-13T01:16:30;100714.06;;;19.21;50.70
4981;BME280;2507;50.392;7.482;2023-07-13T01:18:56;100716.44;;;18.90;51.81
4981;BME280;2507;50.392;7.482;2023-07-13T01:21:27;100723.66;;;18.47;53.19
4981;BME280;2507;50.392;7.482;2023-07-13T01:23:53;100720.00;;;18.30;54.25
4981;BME280;2507;50.392;7.482;2023-07-13T01:26:18;100722.84;;;18.11;55.02
4981;BME280;2507;50.392;7.482;2023-07-13T01:28:44;100725.44;;;18.03;55.42
4981;BME280;2507;50.392;7.482;2023-07-13T01:31:10;100716.47;;;18.04;55.35
4981;BME280;2507;50.392;7.482;2023-07-13T01:33:37;100718.97;;;18.23;54.98
4981;BME280;2507;50.392;7.482;2023-07-13T01:36:05;100713.41;;;18.16;55.28
4981;BME280;2507;50.392;7.482;2023-07-13T01:38:30;100712.91;;;18.13;54.73
4981;BME280;2507;50.392;7.482;2023-07-13T01:40:56;100718.16;;;18.05;55.42
4981;BME280;2507;50.392;7.482;2023-07-13T01:43:21;100711.56;;;17.91;55.60
4981;BME280;2507;50.392;7.482;2023-07-13T01:45:46;100709.13;;;17.98;55.08
4981;BME280;2507;50.392;7.482;2023-07-13T01:48:12;100706.72;;;17.87;55.91
4981;BME280;2507;50.392;7.482;2023-07-13T01:50:38;100702.00;;;17.63;56.81
4981;BME280;2507;50.392;7.482;2023-07-13T01:53:04;100710.56;;;17.75;56.49
4981;BME280;2507;50.392;7.482;2023-07-13T01:55:29;100716.88;;;17.56;56.96
4981;BME280;2507;50.392;7.482;2023-07-13T01:57:56;100721.03;;;17.59;56.83
4981;BME280;2507;50.392;7.482;2023-07-13T02:00:21;100718.16;;;17.70;55.72
4981;BME280;2507;50.392;7.482;2023-07-13T02:02:47;100715.59;;;17.78;55.73
4981;BME280;2507;50.392;7.482;2023-07-13T02:05:12;100717.31;;;17.69;55.51
4981;BME280;2507;50.392;7.482;2023-07-13T02:07:38;100726.25;;;17.23;56.96
4981;BME280;2507;50.392;7.482;2023-07-13T02:10:05;100725.22;;;17.07;57.58
4981;BME280;2507;50.392;7.482;2023-07-13T02:12:31;100729.94;;;17.13;57.58
4981;BME280;2507;50.392;7.482;2023-07-13T02:14:56;100729.56;;;17.25;57.04
4981;BME280;2507;50.392;7.482;2023-07-13T02:17:21;100739.31;;;17.34;56.55
4981;BME280;2507;50.392;7.482;2023-07-13T02:19:47;100729.91;;;17.40;56.69
4981;BME280;2507;50.392;7.482;2023-07-13T02:22:12;100732.28;;;17.53;56.43
4981;BME280;2507;50.392;7.482;2023-07-13T02:24:37;100726.41;;;17.49;56.21
4981;BME280;2507;50.392;7.482;2023-07-13T02:27:03;100730.56;;;17.52;56.21
4981;BME280;2507;50.392;7.482;2023-07-13T02:29:29;100737.66;;;17.33;56.95
4981;BME280;2507;50.392;7.482;2023-07-13T02:31:54;100750.91;;;17.33;57.42
4981;BME280;2507;50.392;7.482;2023-07-13T02:34:20;100738.72;;;17.41;57.13
4981;BME280;2507;50.392;7.482;2023-07-13T02:36:45;100742.72;;;17.27;57.65
4981;BME280;2507;50.392;7.482;2023-07-13T02:39:12;100744.38;;;17.28;57.89
4981;BME280;2507;50.392;7.482;2023-07-13T02:41:37;100742.84;;;16.98;59.13
4981;BME280;2507;50.392;7.482;2023-07-13T02:44:03;100737.78;;;16.78;59.97
4981;BME280;2507;50.392;7.482;2023-07-13T02:46:30;100743.38;;;16.65;60.61
4981;BME280;2507;50.392;7.482;2023-07-13T02:48:55;100740.81;;;16.83;60.08
4981;BME280;2507;50.392;7.482;2023-07-13T02:51:20;100750.19;;;16.68;60.11
4981;BME280;2507;50.392;7.482;2023-07-13T02:53:46;100759.03;;;16.49;60.92
4981;BME280;2507;50.392;7.482;2023-07-13T02:56:11;100742.88;;;16.52;60.98
4981;BME280;2507;50.392;7.482;2023-07-13T02:58:36;100748.00;;;16.63;60.83
4981;BME280;2507;50.392;7.482;2023-07-13T03:01:07;100760.38;;;16.72;60.67
4981;BME280;2507;50.392;7.482;2023-07-13T03:03:33;100753.25;;;16.73;60.01
4981;BME280;2507;50.392;7.482;2023-07-13T03:05:59;100750.50;;;16.55;60.19
4981;BME280;2507;50.392;7.482;2023-07-13T03:08:25;100750.41;;;16.47;60.53
4981;BME280;2507;50.392;7.482;2023-07-13T03:11:03;100748.00;;;16.63;59.91
4981;BME280;2507;50.392;7.482;2023-07-13T03:13:28;100753.22;;;16.82;59.13
4981;BME280;2507;50.392;7.482;2023-07-13T03:15:54;100759.53;;;16.81;58.83
4981;BME280;2507;50.392;7.482;2023-07-13T03:18:19;100753.28;;;16.63;58.92
4981;BME280;2507;50.392;7.482;2023-07-13T03:20:44;100759.13;;;16.76;58.90
4981;BME280;2507;50.392;7.482;2023-07-13T03:23:09;100748.97;;;16.62;59.10
4981;BME280;2507;50.392;7.482;2023-07-13T03:25:35;100764.28;;;16.68;58.68
4981;BME280;2507;50.392;7.482;2023-07-13T03:28:00;100752.47;;;16.44;59.19
4981;BME280;2507;50.392;7.482;2023-07-13T03:30:25;100761.69;;;16.30;59.68
4981;BME280;2507;50.392;7.482;2023-07-13T03:32:50;100762.50;;;16.40;59.68
4981;BME280;2507;50.392;7.482;2023-07-13T03:35:16;100763.88;;;16.34;59.91
4981;BME280;2507;50.392;7.482;2023-07-13T03:37:41;100763.88;;;16.44;59.47
4981;BME280;2507;50.392;7.482;2023-07-13T03:40:08;100778.69;;;16.37;60.33
4981;BME280;2507;50.392;7.482;2023-07-13T03:42:34;100781.47;;;16.45;59.87
4981;BME280;2507;50.392;7.482;2023-07-13T03:45:00;100779.78;;;16.44;60.51
4981;BME280;2507;50.392;7.482;2023-07-13T03:47:25;100772.53;;;16.46;60.46
4981;BME280;2507;50.392;7.482;2023-07-13T03:49:50;100777.44;;;16.51;60.38
4981;BME280;2507;50.392;7.482;2023-07-13T03:52:16;100786.50;;;16.58;60.89
4981;BME280;2507;50.392;7.482;2023-07-13T03:54:41;100792.34;;;16.52;61.31
4981;BME280;2507;50.392;7.482;2023-07-13T03:57:07;100791.78;;;16.67;60.85
4981;BME280;2507;50.392;7.482;2023-07-13T03:59:32;100792.75;;;16.57;60.86
4981;BME280;2507;50.392;7.482;2023-07-13T04:01:58;100796.53;;;16.16;62.10
4981;BME280;2507;50.392;7.482;2023-07-13T04:04:23;100803.34;;;15.99;62.40
4981;BME280;2507;50.392;7.482;2023-07-13T04:06:49;100801.81;;;16.06;62.58
4981;BME280;2507;50.392;7.482;2023-07-13T04:09:14;100793.47;;;16.20;62.30
4981;BME280;2507;50.392;7.482;2023-07-13T04:11:39;100803.06;;;16.69;60.95
4981;BME280;2507;50.392;7.482;2023-07-13T04:14:05;100804.84;;;16.78;59.88
4981;BME280;2507;50.392;7.482;2023-07-13T04:16:31;100806.91;;;17.03;59.34
4981;BME280;2507;50.392;7.482;2023-07-13T04:18:56;100814.34;;;17.27;58.76
4981;BME280;2507;50.392;7.482;2023-07-13T04:21:26;100806.84;;;17.40;57.88
4981;BME280;2507;50.392;7.482;2023-07-13T04:23:51;100802.53;;;17.49;56.71
4981;BME280;2507;50.392;7.482;2023-07-13T04:26:17;100800.84;;;17.48;57.16
4981;BME280;2507;50.392;7.482;2023-07-13T04:28:42;100797.69;;;17.89;56.33
4981;BME280;2507;50.392;7.482;2023-07-13T04:31:08;100797.56;;;18.69;53.86
4981;BME280;2507;50.392;7.482;2023-07-13T04:33:33;100797.41;;;19.21;52.33
4981;BME280;2507;50.392;7.482;2023-07-13T04:35:59;100803.75;;;20.52;50.14
4981;BME280;2507;50.392;7.482;2023-07-13T04:38:29;100796.44;;;21.64;46.85
4981;BME280;2507;50.392;7.482;2023-07-13T04:40:58;100797.50;;;22.76;44.13
4981;BME280;2507;50.392;7.482;2023-07-13T04:43:24;100799.75;;;23.16;43.61
4981;BME280;2507;50.392;7.482;2023-07-13T04:45:51;100815.53;;;23.69;42.86
4981;BME280;2507;50.392;7.482;2023-07-13T04:48:16;100796.25;;;24.79;39.97
4981;BME280;2507;50.392;7.482;2023-07-13T04:50:42;100802.06;;;26.05;37.71
4981;BME280;2507;50.392;7.482;2023-07-13T04:53:08;100801.91;;;26.78;35.40
4981;BME280;2507;50.392;7.482;2023-07-13T04:55:33;100801.31;;;26.70;36.14
4981;BME280;2507;50.392;7.482;2023-07-13T04:57:58;100803.97;;;27.09;35.48
4981;BME280;2507;50.392;7.482;2023-07-13T05:00:26;100803.28;;;27.27;35.00
4981;BME280;2507;50.392;7.482;2023-07-13T05:02:51;100790.09;;;26.92;35.52
4981;BME280;2507;50.392;7.482;2023-07-13T05:05:17;100801.69;;;26.27;36.08
4981;BME280;2507;50.392;7.482;2023-07-13T05:07:42;100807.56;;;25.84;36.88
4981;BME280;2507;50.392;7.482;2023-07-13T05:10:09;100802.41;;;26.02;36.58
4981;BME280;2507;50.392;7.482;2023-07-13T05:12:34;100809.53;;;25.56;36.65
4981;BME280;2507;50.392;7.482;2023-07-13T05:15:00;100798.38;;;25.24;37.47
4981;BME280;2507;50.392;7.482;2023-07-13T05:17:26;100819.19;;;25.44;37.54
4981;BME280;2507;50.392;7.482;2023-07-13T05:19:52;100799.25;;;25.32;37.15
4981;BME280;2507;50.392;7.482;2023-07-13T05:22:17;100807.63;;;24.81;38.02
4981;BME280;2507;50.392;7.482;2023-07-13T05:24:42;100810.94;;;24.62;38.50
4981;BME280;2507;50.392;7.482;2023-07-13T05:27:07;100803.41;;;24.51;38.96
4981;BME280;2507;50.392;7.482;2023-07-13T05:29:33;100804.63;;;24.06;39.55
4981;BME280;2507;50.392;7.482;2023-07-13T05:31:58;100810.13;;;24.41;39.46
4981;BME280;2507;50.392;7.482;2023-07-13T05:34:23;100811.31;;;25.08;38.60
4981;BME280;2507;50.392;7.482;2023-07-13T05:36:49;100815.56;;;26.24;36.81
4981;BME280;2507;50.392;7.482;2023-07-13T05:39:15;100815.72;;;27.47;34.61
4981;BME280;2507;50.392;7.482;2023-07-13T05:41:40;100822.31;;;28.33;33.23
4981;BME280;2507;50.392;7.482;2023-07-13T05:44:06;100815.16;;;28.76;32.76
4981;BME280;2507;50.392;7.482;2023-07-13T05:46:31;100828.66;;;29.01;32.61
4981;BME280;2507;50.392;7.482;2023-07-13T05:48:57;100822.63;;;29.78;31.63
4981;BME280;2507;50.392;7.482;2023-07-13T05:51:22;100833.72;;;30.17;31.00
4981;BME280;2507;50.392;7.482;2023-07-13T05:53:47;100828.50;;;30.87;29.84
4981;BME280;2507;50.392;7.482;2023-07-13T05:56:13;100824.00;;;31.39;29.48
4981;BME280;2507;50.392;7.482;2023-07-13T05:58:38;100830.59;;;31.94;29.05
4981;BME280;2507;50.392;7.482;2023-07-13T06:01:11;100833.75;;;32.02;28.63
4981;BME280;2507;50.392;7.482;2023-07-13T06:03:36;100835.31;;;32.93;27.83
4981;BME280;2507;50.392;7.482;2023-07-13T06:06:06;100835.94;;;32.34;27.69
4981;BME280;2507;50.392;7.482;2023-07-13T06:08:32;100832.63;;;31.36;28.67
4981;BME280;2507;50.392;7.482;2023-07-13T06:11:10;100833.41;;;30.78;29.74
4981;BME280;2507;50.392;7.482;2023-07-13T06:13:37;100831.91;;;31.17;29.33
4981;BME280;2507;50.392;7.482;2023-07-13T06:16:03;100840.97;;;30.76;29.52
4981;BME280;2507;50.392;7.482;2023-07-13T06:18:36;100837.56;;;31.16;29.59
4981;BME280;2507;50.392;7.482;2023-07-13T06:21:09;100838.56;;;31.72;28.69
4981;BME280;2507;50.392;7.482;2023-07-13T06:23:35;100826.09;;;31.48;28.84
4981;BME280;2507;50.392;7.482;2023-07-13T06:26:01;100845.56;;;31.34;29.07
4981;BME280;2507;50.392;7.482;2023-07-13T06:28:28;100837.41;;;31.57;28.84
4981;BME280;2507;50.392;7.482;2023-07-13T06:30:54;100841.81;;;31.97;28.94
4981;BME280;2507;50.392;7.482;2023-07-13T06:33:19;100849.72;;;31.99;28.63
4981;BME280;2507;50.392;7.482;2023-07-13T06:35:45;100839.94;;;31.86;28.83
4981;BME280;2507;50.392;7.482;2023-07-13T06:38:10;100839.00;;;30.83;29.21
4981;BME280;2507;50.392;7.482;2023-07-13T06:40:35;100848.44;;;30.40;30.20
4981;BME280;2507;50.392;7.482;2023-07-13T06:43:01;100845.53;;;30.64;30.06
4981;BME280;2507;50.392;7.482;2023-07-13T06:45:26;100855.50;;;31.17;29.70
4981;BME280;2507;50.392;7.482;2023-07-13T06:47:51;100850.63;;;31.53;28.86
4981;BME280;2507;50.392;7.482;2023-07-13T06:50:16;100853.50;;;31.86;28.41
4981;BME280;2507;50.392;7.482;2023-07-13T06:52:42;100856.94;;;32.66;28.56
4981;BME280;2507;50.392;7.482;2023-07-13T06:55:07;100852.75;;;33.09;27.10
4981;BME280;2507;50.392;7.482;2023-07-13T06:57:33;100851.59;;;33.86;26.50
4981;BME280;2507;50.392;7.482;2023-07-13T06:59:58;100842.59;;;34.34;26.49
4981;BME280;2507;50.392;7.482;2023-07-13T07:02:23;100853.94;;;34.21;26.00
4981;BME280;2507;50.392;7.482;2023-07-13T07:04:49;100844.66;;;33.52;26.62
4981;BME280;2507;50.392;7.482;2023-07-13T07:07:15;100846.06;;;33.16;27.24
4981;BME280;2507;50.392;7.482;2023-07-13T07:09:40;100846.91;;;33.38;27.59
4981;BME280;2507;50.392;7.482;2023-07-13T07:12:06;100845.53;;;33.19;27.14
4981;BME280;2507;50.392;7.482;2023-07-13T07:14:31;100849.53;;;34.15;26.99
4981;BME280;2507;50.392;7.482;2023-07-13T07:16:57;100844.91;;;33.72;26.60
4981;BME280;2507;50.392;7.482;2023-07-13T07:19:23;100850.50;;;33.82;26.90
4981;BME280;2507;50.392;7.482;2023-07-13T07:21:49;100844.88;;;34.15;26.31
4981;BME280;2507;50.392;7.482;2023-07-13T07:24:14;100846.09;;;34.03;26.39
4981;BME280;2507;50.392;7.482;2023-07-13T07:26:40;100839.91;;;34.07;26.54
4981;BME280;2507;50.392;7.482;2023-07-13T07:29:06;100833.09;;;34.94;25.67
4981;BME280;2507;50.392;7.482;2023-07-13T07:31:31;100825.91;;;35.30;25.13
4981;BME280;2507;50.392;7.482;2023-07-13T07:33:56;100836.44;;;34.43;25.41
4981;BME280;2507;50.392;7.482;2023-07-13T07:36:22;100844.84;;;33.88;25.76
4981;BME280;2507;50.392;7.482;2023-07-13T07:38:47;100843.94;;;33.83;25.90
4981;BME280;2507;50.392;7.482;2023-07-13T07:41:12;100844.09;;;33.33;26.83
4981;BME280;2507;50.392;7.482;2023-07-13T07:43:38;100836.84;;;32.67;27.35
4981;BME280;2507;50.392;7.482;2023-07-13T07:46:03;100836.16;;;32.77;27.21
4981;BME280;2507;50.392;7.482;2023-07-13T07:48:29;100830.81;;;33.37;27.30
4981;BME280;2507;50.392;7.482;2023-07-13T07:50:54;100834.28;;;34.19;25.63
4981;BME280;2507;50.392;7.482;2023-07-13T07:53:20;100828.47;;;35.47;24.82
4981;BME280;2507;50.392;7.482;2023-07-13T07:55:45;100826.66;;;35.16;24.40
4981;BME280;2507;50.392;7.482;2023-07-13T07:58:10;100826.78;;;34.94;24.12
4981;BME280;2507;50.392;7.482;2023-07-13T08:00:36;100830.25;;;35.78;23.93
4981;BME280;2507;50.392;7.482;2023-07-13T08:03:01;100822.63;;;35.28;23.60
4981;BME280;2507;50.392;7.482;2023-07-13T08:05:27;100820.84;;;34.39;24.99
4981;BME280;2507;50.392;7.482;2023-07-13T08:07:52;100824.41;;;33.26;25.64
4981;BME280;2507;50.392;7.482;2023-07-13T08:10:17;100817.56;;;32.52;25.51
4981;BME280;2507;50.392;7.482;2023-07-13T08:12:43;100819.38;;;32.96;25.91
4981;BME280;2507;50.392;7.482;2023-07-13T08:15:13;100820.53;;;33.82;25.11
4981;BME280;2507;50.392;7.482;2023-07-13T08:17:39;100826.38;;;35.17;23.68
4981;BME280;2507;50.392;7.482;2023-07-13T08:20:05;100815.56;;;34.27;23.96
4981;BME280;2507;50.392;7.482;2023-07-13T08:22:30;100812.63;;;32.49;25.07
4981;BME280;2507;50.392;7.482;2023-07-13T08:24:55;100809.72;;;31.94;25.93
4981;BME280;2507;50.392;7.482;2023-07-13T08:27:24;100806.59;;;31.63;26.55
4981;BME280;2507;50.392;7.482;2023-07-13T08:29:51;100809.97;;;31.81;26.43
4981;BME280;2507;50.392;7.482;2023-07-13T08:32:17;100805.19;;;31.88;26.19
4981;BME280;2507;50.392;7.482;2023-07-13T08:34:43;100806.34;;;31.01;27.07
4981;BME280;2507;50.392;7.482;2023-07-13T08:37:09;100811.00;;;30.71;27.44
4981;BME280;2507;50.392;7.482;2023-07-13T08:39:35;100812.09;;;31.17;27.15
4981;BME280;2507;50.392;7.482;2023-07-13T08:42:14;100806.78;;;30.98;27.54
4981;BME280;2507;50.392;7.482;2023-07-13T08:47:29;100799.91;;;30.50;28.21
4981;BME280;2507;50.392;7.482;2023-07-13T08:49:55;100816.88;;;30.57;27.98
4981;BME280;2507;50.392;7.482;2023-07-13T08:52:40;100801.47;;;30.80;27.53
4981;BME280;2507;50.392;7.482;2023-07-13T08:55:15;100805.22;;;31.49;26.95
4981;BME280;2507;50.392;7.482;2023-07-13T08:57:43;100808.41;;;32.14;26.00
4981;BME280;2507;50.392;7.482;2023-07-13T09:00:12;100809.00;;;30.55;27.07
4981;BME280;2507;50.392;7.482;2023-07-13T09:02:54;100804.13;;;30.34;27.94
4981;BME280;2507;50.392;7.482;2023-07-13T09:05:28;100791.94;;;30.25;27.60
4981;BME280;2507;50.392;7.482;2023-07-13T09:10:44;100794.00;;;29.52;28.61
4981;BME280;2507;50.392;7.482;2023-07-13T09:13:23;100788.91;;;28.59;29.57
4981;BME280;2507;50.392;7.482;2023-07-13T09:15:52;100800.59;;;28.22;30.32
4981;BME280;2507;50.392;7.482;2023-07-13T09:18:31;100794.16;;;28.23;30.15
4981;BME280;2507;50.392;7.482;2023-07-13T09:21:03;100800.63;;;28.53;30.07
4981;BME280;2507;50.392;7.482;2023-07-13T09:23:31;100793.91;;;27.99;29.90
4981;BME280;2507;50.392;7.482;2023-07-13T09:26:04;100794.16;;;27.41;30.64
4981;BME280;2507;50.392;7.482;2023-07-13T09:28:37;100792.31;;;27.35;30.51
4981;BME280;2507;50.392;7.482;2023-07-13T09:31:06;100796.22;;;27.25;30.70
4981;BME280;2507;50.392;7.482;2023-07-13T09:33:35;100793.38;;;27.78;30.51
4981;BME280;2507;50.392;7.482;2023-07-13T09:36:01;100789.50;;;27.61;30.54
4981;BME280;2507;50.392;7.482;2023-07-13T09:38:28;100780.53;;;27.09;31.31
4981;BME280;2507;50.392;7.482;2023-07-13T09:41:25;100782.84;;;26.86;31.10
4981;BME280;2507;50.392;7.482;2023-07-13T09:44:07;100775.38;;;27.01;30.04
4981;BME280;2507;50.392;7.482;2023-07-13T09:46:37;100781.84;;;26.74;30.55
4981;BME280;2507;50.392;7.482;2023-07-13T09:49:03;100771.25;;;26.60;31.06
4981;BME280;2507;50.392;7.482;2023-07-13T09:51:28;100782.22;;;26.97;30.34
4981;BME280;2507;50.392;7.482;2023-07-13T09:53:54;100786.78;;;26.90;30.98
4981;BME280;2507;50.392;7.482;2023-07-13T09:56:26;100785.94;;;26.64;30.83
4981;BME280;2507;50.392;7.482;2023-07-13T09:58:52;100784.75;;;26.73;31.01
4981;BME280;2507;50.392;7.482;2023-07-13T10:01:31;100788.91;;;26.69;30.17
4981;BME280;2507;50.392;7.482;2023-07-13T10:03:57;100787.41;;;26.60;30.36
4981;BME280;2507;50.392;7.482;2023-07-13T10:06:23;100793.44;;;26.68;30.95
4981;BME280;2507;50.392;7.482;2023-07-13T10:08:55;100788.69;;;26.70;29.85
4981;BME280;2507;50.392;7.482;2023-07-13T10:11:23;100789.91;;;26.48;30.72
4981;BME280;2507;50.392;7.482;2023-07-13T10:14:00;100785.97;;;26.96;30.55
4981;BME280;2507;50.392;7.482;2023-07-13T10:16:30;100787.41;;;27.05;29.93
4981;BME280;2507;50.392;7.482;2023-07-13T10:18:59;100785.69;;;27.17;29.85
4981;BME280;2507;50.392;7.482;2023-07-13T10:21:35;100784.00;;;27.80;29.77
4981;BME280;2507;50.392;7.482;2023-07-13T10:24:16;100784.91;;;28.37;28.78
4981;BME280;2507;50.392;7.482;2023-07-13T10:26:50;100788.69;;;28.60;28.42
4981;BME280;2507;50.392;7.482;2023-07-13T10:29:19;100782.38;;;28.91;29.29
4981;BME280;2507;50.392;7.482;2023-07-13T10:31:45;100783.31;;;29.39;27.85
4981;BME280;2507;50.392;7.482;2023-07-13T10:34:11;100781.50;;;29.51;27.69
4981;BME280;2507;50.392;7.482;2023-07-13T10:36:44;100786.00;;;29.57;27.84
4981;BME280;2507;50.392;7.482;2023-07-13T10:39:16;100791.66;;;29.38;27.41
4981;BME280;2507;50.392;7.482;2023-07-13T10:41:44;100780.25;;;29.17;27.22
4981;BME280;2507;50.392;7.482;2023-07-13T10:44:20;100786.41;;;29.43;27.99
4981;BME280;2507;50.392;7.482;2023-07-13T10:46:46;100781.88;;;29.55;27.45
4981;BME280;2507;50.392;7.482;2023-07-13T10:49:12;100788.03;;;29.26;27.09
4981;BME280;2507;50.392;7.482;2023-07-13T10:51:39;100788.88;;;28.34;28.12
4981;BME280;2507;50.392;7.482;2023-07-13T10:54:18;100793.31;;;28.22;29.05
4981;BME280;2507;50.392;7.482;2023-07-13T10:56:44;100795.00;;;28.54;29.64
4981;BME280;2507;50.392;7.482;2023-07-13T10:59:23;100805.13;;;28.59;28.13
4981;BME280;2507;50.392;7.482;2023-07-13T11:04:19;100802.44;;;27.39;29.45
4981;BME280;2507;50.392;7.482;2023-07-13T11:06:47;100800.84;;;27.12;30.53
4981;BME280;2507;50.392;7.482;2023-07-13T11:09:40;100811.19;;;27.35;30.24
4981;BME280;2507;50.392;7.482;2023-07-13T11:12:09;100808.91;;;27.18;29.70
4981;BME280;2507;50.392;7.482;2023-07-13T11:14:36;100813.25;;;27.13;30.46
4981;BME280;2507;50.392;7.482;2023-07-13T11:20:09;100813.41;;;27.51;30.27
4981;BME280;2507;50.392;7.482;2023-07-13T11:27:45;100815.31;;;27.94;29.39
4981;BME280;2507;50.392;7.482;2023-07-13T11:33:12;100818.59;;;27.52;29.72
4981;BME280;2507;50.392;7.482;2023-07-13T11:38:18;100817.31;;;27.55;30.42
4981;BME280;2507;50.392;7.482;2023-07-13T11:40:46;100812.44;;;27.83;30.08
4981;BME280;2507;50.392;7.482;2023-07-13T11:43:15;100813.66;;;27.87;30.05
4981;BME280;2507;50.392;7.482;2023-07-13T11:45:42;100823.19;;;27.89;30.47
4981;BME280;2507;50.392;7.482;2023-07-13T11:48:40;100821.13;;;27.21;30.81
4981;BME280;2507;50.392;7.482;2023-07-13T11:51:06;100836.34;;;26.83;30.83
4981;BME280;2507;50.392;7.482;2023-07-13T11:53:46;100830.94;;;27.09;31.16
4981;BME280;2507;50.392;7.482;2023-07-13T11:56:13;100819.03;;;27.30;30.99
4981;BME280;2507;50.392;7.482;2023-07-13T11:58:38;100838.22;;;27.72;30.28
4981;BME280;2507;50.392;7.482;2023-07-13T12:01:04;100835.19;;;28.38;29.42
4981;BME280;2507;50.392;7.482;2023-07-13T12:03:30;100829.09;;;28.17;29.27
4981;BME280;2507;50.392;7.482;2023-07-13T12:06:02;100831.47;;;28.01;29.82
4981;BME280;2507;50.392;7.482;2023-07-13T12:08:28;100832.69;;;28.05;29.63
4981;BME280;2507;50.392;7.482;2023-07-13T12:11:00;100830.91;;;27.92;28.88
4981;BME280;2507;50.392;7.482;2023-07-13T12:13:29;100829.84;;;27.93;29.04
4981;BME280;2507;50.392;7.482;2023-07-13T12:15:56;100833.72;;;28.04;28.49
4981;BME280;2507;50.392;7.482;2023-07-13T12:18:23;100823.91;;;28.16;28.51
4981;BME280;2507;50.392;7.482;2023-07-13T12:20:56;100827.78;;;28.27;28.70
4981;BME280;2507;50.392;7.482;2023-07-13T12:23:29;100827.38;;;27.85;29.13
4981;BME280;2507;50.392;7.482;2023-07-13T12:25:57;100838.97;;;27.42;29.52
4981;BME280;2507;50.392;7.482;2023-07-13T12:28:35;100834.00;;;27.32;29.93
4981;BME280;2507;50.392;7.482;2023-07-13T12:31:04;100841.47;;;27.04;31.04
4981;BME280;2507;50.392;7.482;2023-07-13T12:33:30;100834.25;;;26.91;30.89
4981;BME280;2507;50.392;7.482;2023-07-13T12:35:57;100842.94;;;26.93;31.11
4981;BME280;2507;50.392;7.482;2023-07-13T12:38:25;100845.66;;;26.87;31.33
4981;BME280;2507;50.392;7.482;2023-07-13T12:40:51;100843.56;;;26.95;30.80
4981;BME280;2507;50.392;7.482;2023-07-13T12:43:20;100844.59;;;26.75;31.01
4981;BME280;2507;50.392;7.482;2023-07-13T12:45:59;100847.31;;;26.68;30.79
4981;BME280;2507;50.392;7.482;2023-07-13T12:48:25;100850.22;;;26.80;31.30
4981;BME280;2507;50.392;7.482;2023-07-13T12:50:53;100860.97;;;26.67;30.66
4981;BME280;2507;50.392;7.482;2023-07-13T12:53:23;100867.56;;;26.51;30.86
4981;BME280;2507;50.392;7.482;2023-07-13T12:55:55;100866.78;;;26.70;30.60
4981;BME280;2507;50.392;7.482;2023-07-13T12:58:29;100858.72;;;26.70;31.09
4981;BME280;2507;50.392;7.482;2023-07-13T13:00:58;100857.84;;;26.50;31.06
4981;BME280;2507;50.392;7.482;2023-07-13T13:03:30;100863.59;;;26.21;31.01
4981;BME280;2507;50.392;7.482;2023-07-13T13:06:07;100870.41;;;26.10;31.54
4981;BME280;2507;50.392;7.482;2023-07-13T13:08:50;100873.75;;;26.32;31.33
4981;BME280;2507;50.392;7.482;2023-07-13T13:11:16;100873.34;;;26.35;31.13
4981;BME280;2507;50.392;7.482;2023-07-13T13:13:43;100869.63;;;26.36;30.72
4981;BME280;2507;50.392;7.482;2023-07-13T13:18:42;100862.19;;;26.64;30.18
4981;BME280;2507;50.392;7.482;2023-07-13T13:21:09;100870.91;;;26.66;30.92
4981;BME280;2507;50.392;7.482;2023-07-13T13:23:34;100858.28;;;26.86;30.98
4981;BME280;2507;50.392;7.482;2023-07-13T13:26:00;100877.16;;;27.12;30.50
4981;BME280;2507;50.392;7.482;2023-07-13T13:28:25;100869.97;;;27.64;30.35
4981;BME280;2507;50.392;7.482;2023-07-13T13:30:51;100864.47;;;28.03;29.77
4981;BME280;2507;50.392;7.482;2023-07-13T13:33:19;100864.06;;;27.99;29.88
4981;BME280;2507;50.392;7.482;2023-07-13T13:35:45;100860.38;;;27.94;30.12